DLH7MH EKCH-EDDF
Flight info
| Callsign | DLH7MH |
|---|---|
| Flight time | 1h 4m |
| Altitude | 36000 |
| Route | NEXEN T503 MICOS DCT DENIX/N0447F370 DCT AMALI/N0444F360 DCT RIMET/N0438F310 T157 KOKEB/N0389F230 T157 KERAX KERAX5A |
| Aircraft | A321/M-SDE3FGHIRWY/LB1 |
Departure
| Time | 2026-05-04 14:46 |
|---|---|
| Airport | Copenhagen Kastrup Airport (EKCH) |
Arrival
| Time | 2026-05-04 15:51 |
|---|---|
| Airport | Frankfurt Main Airport (EDDF) |
| Time | Latitude | Longitude | Altitude | Speed | Heading |
|---|---|---|---|---|---|
| 2026-05-04 14:22 | 55.62496 | 12.64903 | 30 ft | 0 kts | 89° |
| 2026-05-04 14:37 | 55.62496 | 12.64878 | 24 ft | 4 kts | 92° |
| 2026-05-04 14:37 | 55.62499 | 12.64832 | 24 ft | 4 kts | 104° |
| 2026-05-04 14:37 | 55.62509 | 12.64789 | 25 ft | 4 kts | 133° |
| 2026-05-04 14:38 | 55.62524 | 12.64772 | 27 ft | 0 kts | 179° |
| 2026-05-04 14:41 | 55.62517 | 12.64772 | 24 ft | 2 kts | 179° |
| 2026-05-04 14:41 | 55.62496 | 12.64772 | 24 ft | 4 kts | 179° |
| 2026-05-04 14:41 | 55.62414 | 12.64779 | 24 ft | 8 kts | 177° |
| 2026-05-04 14:42 | 55.62319 | 12.64678 | 24 ft | 10 kts | 245° |
| 2026-05-04 14:42 | 55.62287 | 12.64555 | 23 ft | 12 kts | 245° |
| 2026-05-04 14:42 | 55.62248 | 12.64407 | 23 ft | 14 kts | 237° |
| 2026-05-04 14:43 | 55.62161 | 12.64312 | 25 ft | 15 kts | 206° |
| 2026-05-04 14:43 | 55.62067 | 12.64235 | 24 ft | 15 kts | 204° |
| 2026-05-04 14:43 | 55.61966 | 12.64152 | 24 ft | 17 kts | 205° |
| 2026-05-04 14:43 | 55.61854 | 12.64077 | 24 ft | 18 kts | 187° |
| 2026-05-04 14:44 | 55.61778 | 12.64079 | 24 ft | 8 kts | 175° |
| 2026-05-04 14:44 | 55.61757 | 12.64081 | 24 ft | 0 kts | 176° |
| 2026-05-04 14:44 | 55.61737 | 12.64083 | 25 ft | 9 kts | 176° |
| 2026-05-04 14:44 | 55.61667 | 12.64090 | 27 ft | 10 kts | 176° |
| 2026-05-04 14:45 | 55.61608 | 12.64042 | 27 ft | 7 kts | 219° |
| 2026-05-04 14:45 | 55.61607 | 12.64041 | 27 ft | 0 kts | 219° |
| 2026-05-04 14:45 | 55.61586 | 12.64010 | 26 ft | 16 kts | 219° |
| 2026-05-04 14:46 | 55.61289 | 12.63548 | 27 ft | 95 kts | 221° |
| 2026-05-04 14:46 | 55.60632 | 12.62512 | 38 ft | 154 kts | 227° |
| 2026-05-04 14:46 | 55.59789 | 12.61321 | 700 ft | 154 kts | 223° |
| 2026-05-04 14:46 | 55.58935 | 12.60152 | 1488 ft | 155 kts | 223° |
| 2026-05-04 14:47 | 55.58085 | 12.58844 | 1959 ft | 172 kts | 226° |
| 2026-05-04 14:47 | 55.57149 | 12.57341 | 2246 ft | 193 kts | 225° |
| 2026-05-04 14:47 | 55.56064 | 12.55754 | 2491 ft | 218 kts | 221° |
| 2026-05-04 14:47 | 55.54766 | 12.54073 | 2851 ft | 243 kts | 219° |
| 2026-05-04 14:48 | 55.53340 | 12.52307 | 3495 ft | 254 kts | 218° |
| 2026-05-04 14:48 | 55.51875 | 12.50525 | 4352 ft | 256 kts | 218° |
| 2026-05-04 14:48 | 55.50400 | 12.48740 | 5249 ft | 257 kts | 218° |
| 2026-05-04 14:48 | 55.48914 | 12.46945 | 6120 ft | 259 kts | 218° |
| 2026-05-04 14:49 | 55.47428 | 12.45146 | 6936 ft | 260 kts | 219° |
| 2026-05-04 14:49 | 55.45932 | 12.43328 | 7735 ft | 262 kts | 219° |
| 2026-05-04 14:49 | 55.44421 | 12.41486 | 8530 ft | 265 kts | 219° |
| 2026-05-04 14:49 | 55.42903 | 12.39633 | 9331 ft | 267 kts | 218° |
| 2026-05-04 14:50 | 55.41367 | 12.37761 | 10070 ft | 271 kts | 218° |
| 2026-05-04 14:50 | 55.39767 | 12.35805 | 10344 ft | 291 kts | 218° |
| 2026-05-04 14:50 | 55.38059 | 12.33708 | 10498 ft | 314 kts | 218° |
| 2026-05-04 14:50 | 55.36210 | 12.31449 | 10955 ft | 324 kts | 218° |
| 2026-05-04 14:51 | 55.34346 | 12.29189 | 11600 ft | 327 kts | 218° |
| 2026-05-04 14:51 | 55.32486 | 12.26942 | 12272 ft | 330 kts | 218° |
| 2026-05-04 14:51 | 55.30585 | 12.24649 | 12940 ft | 333 kts | 218° |
| 2026-05-04 14:51 | 55.28669 | 12.22341 | 13617 ft | 336 kts | 218° |
| 2026-05-04 14:52 | 55.26732 | 12.20007 | 14212 ft | 339 kts | 218° |
| 2026-05-04 14:52 | 55.24777 | 12.17653 | 14824 ft | 342 kts | 218° |
| 2026-05-04 14:52 | 55.22805 | 12.15281 | 15422 ft | 344 kts | 218° |
| 2026-05-04 14:52 | 55.20824 | 12.12898 | 16031 ft | 347 kts | 218° |
| 2026-05-04 14:53 | 55.18843 | 12.10480 | 16634 ft | 349 kts | 219° |
| 2026-05-04 14:53 | 55.16871 | 12.07979 | 17166 ft | 351 kts | 220° |
| 2026-05-04 14:53 | 55.14897 | 12.05429 | 17735 ft | 354 kts | 220° |
| 2026-05-04 14:53 | 55.12911 | 12.02848 | 18296 ft | 357 kts | 220° |
| 2026-05-04 14:54 | 55.10907 | 12.00255 | 18801 ft | 360 kts | 220° |
| 2026-05-04 14:54 | 55.08887 | 11.97657 | 19307 ft | 362 kts | 220° |
| 2026-05-04 14:54 | 55.06851 | 11.95048 | 19800 ft | 364 kts | 220° |
| 2026-05-04 14:54 | 55.04800 | 11.92434 | 20285 ft | 366 kts | 220° |
| 2026-05-04 14:55 | 55.02732 | 11.89811 | 20779 ft | 369 kts | 220° |
| 2026-05-04 14:55 | 55.00649 | 11.87180 | 21264 ft | 371 kts | 220° |
| 2026-05-04 14:55 | 54.98555 | 11.84531 | 21732 ft | 373 kts | 220° |
| 2026-05-04 14:55 | 54.96446 | 11.81863 | 22202 ft | 376 kts | 220° |
| 2026-05-04 14:56 | 54.94325 | 11.79183 | 22653 ft | 378 kts | 219° |
| 2026-05-04 14:56 | 54.92196 | 11.76496 | 23179 ft | 379 kts | 219° |
| 2026-05-04 14:56 | 54.90058 | 11.73802 | 23640 ft | 380 kts | 219° |
| 2026-05-04 14:56 | 54.87911 | 11.71101 | 24047 ft | 382 kts | 220° |
| 2026-05-04 14:57 | 54.85783 | 11.68429 | 24468 ft | 383 kts | 220° |
| 2026-05-04 14:57 | 54.83621 | 11.65715 | 24887 ft | 384 kts | 220° |
| 2026-05-04 14:57 | 54.81453 | 11.62997 | 25299 ft | 385 kts | 220° |
| 2026-05-04 14:57 | 54.79280 | 11.60277 | 25705 ft | 386 kts | 220° |
| 2026-05-04 14:58 | 54.77096 | 11.57550 | 26121 ft | 387 kts | 220° |
| 2026-05-04 14:58 | 54.74908 | 11.54824 | 26521 ft | 388 kts | 220° |
| 2026-05-04 14:58 | 54.72711 | 11.52086 | 26921 ft | 390 kts | 220° |
| 2026-05-04 14:58 | 54.70510 | 11.49342 | 27319 ft | 389 kts | 220° |
| 2026-05-04 14:59 | 54.68313 | 11.46606 | 27802 ft | 389 kts | 220° |
| 2026-05-04 14:59 | 54.66118 | 11.43877 | 28204 ft | 390 kts | 220° |
| 2026-05-04 14:59 | 54.61701 | 11.38398 | 28961 ft | 392 kts | 220° |
| 2026-05-04 15:00 | 54.59474 | 11.35646 | 29327 ft | 394 kts | 220° |
| 2026-05-04 15:00 | 54.57234 | 11.32882 | 29578 ft | 398 kts | 220° |
| 2026-05-04 15:00 | 54.54975 | 11.30102 | 29871 ft | 400 kts | 220° |
| 2026-05-04 15:01 | 54.50419 | 11.24539 | 30381 ft | 404 kts | 220° |
| 2026-05-04 15:01 | 54.48120 | 11.21743 | 30550 ft | 405 kts | 220° |
| 2026-05-04 15:01 | 54.45826 | 11.18953 | 30888 ft | 404 kts | 220° |
| 2026-05-04 15:01 | 54.43527 | 11.16169 | 31196 ft | 404 kts | 220° |
| 2026-05-04 15:02 | 54.41229 | 11.13397 | 31483 ft | 404 kts | 219° |
| 2026-05-04 15:02 | 54.38929 | 11.10631 | 31787 ft | 404 kts | 219° |
| 2026-05-04 15:02 | 54.36628 | 11.07863 | 32075 ft | 404 kts | 219° |
| 2026-05-04 15:02 | 54.34328 | 11.05093 | 32350 ft | 404 kts | 219° |
| 2026-05-04 15:03 | 54.32040 | 11.02399 | 32621 ft | 406 kts | 216° |
| 2026-05-04 15:03 | 54.29501 | 11.00188 | 32891 ft | 413 kts | 207° |
| 2026-05-04 15:03 | 54.26747 | 10.98686 | 33157 ft | 418 kts | 201° |
| 2026-05-04 15:03 | 54.23946 | 10.97360 | 33404 ft | 417 kts | 201° |
| 2026-05-04 15:04 | 54.21154 | 10.96032 | 33717 ft | 417 kts | 201° |
| 2026-05-04 15:04 | 54.18359 | 10.94700 | 34006 ft | 416 kts | 201° |
| 2026-05-04 15:04 | 54.15569 | 10.93371 | 34234 ft | 416 kts | 201° |
| 2026-05-04 15:04 | 54.12776 | 10.92041 | 34442 ft | 417 kts | 201° |
| 2026-05-04 15:05 | 54.09979 | 10.90711 | 34642 ft | 418 kts | 201° |
| 2026-05-04 15:05 | 54.07178 | 10.89382 | 34845 ft | 419 kts | 201° |
| 2026-05-04 15:05 | 54.04369 | 10.88049 | 35044 ft | 419 kts | 201° |
| 2026-05-04 15:05 | 54.01557 | 10.86716 | 35243 ft | 420 kts | 200° |
| 2026-05-04 15:06 | 53.98737 | 10.85384 | 35433 ft | 420 kts | 200° |
| 2026-05-04 15:06 | 53.95917 | 10.84054 | 35652 ft | 421 kts | 200° |
| 2026-05-04 15:06 | 53.93090 | 10.82724 | 35858 ft | 422 kts | 200° |
| 2026-05-04 15:07 | 53.87434 | 10.80068 | 35976 ft | 421 kts | 200° |
| 2026-05-04 15:07 | 53.81790 | 10.77422 | 35975 ft | 421 kts | 200° |
| 2026-05-04 15:08 | 53.76155 | 10.74778 | 35942 ft | 420 kts | 200° |
| 2026-05-04 15:08 | 53.70510 | 10.72148 | 35973 ft | 421 kts | 200° |
| 2026-05-04 15:09 | 53.64858 | 10.69530 | 35977 ft | 421 kts | 200° |
| 2026-05-04 15:09 | 53.59199 | 10.66906 | 35982 ft | 422 kts | 200° |
| 2026-05-04 15:10 | 53.50753 | 10.62995 | 35981 ft | 422 kts | 200° |
| 2026-05-04 15:11 | 53.42258 | 10.59076 | 35991 ft | 422 kts | 200° |
| 2026-05-04 15:11 | 53.36593 | 10.56481 | 35986 ft | 422 kts | 200° |
| 2026-05-04 15:12 | 53.30937 | 10.53902 | 35986 ft | 421 kts | 200° |
| 2026-05-04 15:12 | 53.25283 | 10.51335 | 35965 ft | 421 kts | 200° |
| 2026-05-04 15:13 | 53.19643 | 10.48771 | 35986 ft | 419 kts | 200° |
| 2026-05-04 15:13 | 53.14013 | 10.46243 | 35989 ft | 419 kts | 197° |
| 2026-05-04 15:14 | 53.08143 | 10.45311 | 35986 ft | 426 kts | 188° |
| 2026-05-04 15:14 | 53.02252 | 10.44855 | 35986 ft | 426 kts | 188° |
| 2026-05-04 15:15 | 52.96337 | 10.44393 | 35982 ft | 425 kts | 188° |
| 2026-05-04 15:15 | 52.90427 | 10.43928 | 35982 ft | 425 kts | 188° |
| 2026-05-04 15:16 | 52.81561 | 10.43249 | 35982 ft | 425 kts | 188° |
| 2026-05-04 15:17 | 52.72708 | 10.42552 | 35985 ft | 424 kts | 188° |
| 2026-05-04 15:17 | 52.63865 | 10.41869 | 35992 ft | 424 kts | 188° |
| 2026-05-04 15:18 | 52.57978 | 10.41423 | 35993 ft | 423 kts | 188° |
| 2026-05-04 15:19 | 52.49160 | 10.40733 | 35996 ft | 422 kts | 188° |
| 2026-05-04 15:19 | 52.40460 | 10.39563 | 36002 ft | 418 kts | 192° |
| 2026-05-04 15:20 | 52.34682 | 10.38473 | 36001 ft | 418 kts | 192° |
| 2026-05-04 15:20 | 52.28906 | 10.37448 | 35977 ft | 418 kts | 191° |
| 2026-05-04 15:21 | 52.23129 | 10.36499 | 35989 ft | 417 kts | 191° |
| 2026-05-04 15:22 | 52.14451 | 10.35074 | 36000 ft | 417 kts | 191° |
| 2026-05-04 15:22 | 52.05803 | 10.33642 | 35982 ft | 417 kts | 191° |
| 2026-05-04 15:23 | 52.00063 | 10.32703 | 35976 ft | 417 kts | 191° |
| 2026-05-04 15:23 | 51.94281 | 10.31772 | 35979 ft | 418 kts | 191° |
| 2026-05-04 15:24 | 51.82699 | 10.29866 | 35972 ft | 419 kts | 191° |
| 2026-05-04 15:25 | 51.76903 | 10.28929 | 35979 ft | 419 kts | 191° |
| 2026-05-04 15:26 | 51.68193 | 10.27521 | 35192 ft | 418 kts | 191° |
| 2026-05-04 15:26 | 51.65294 | 10.27051 | 34681 ft | 418 kts | 191° |
| 2026-05-04 15:26 | 51.59501 | 10.26121 | 33625 ft | 419 kts | 191° |
| 2026-05-04 15:27 | 51.56640 | 10.25663 | 33060 ft | 419 kts | 190° |
| 2026-05-04 15:27 | 51.51107 | 10.23312 | 31904 ft | 410 kts | 205° |
| 2026-05-04 15:28 | 51.45840 | 10.19909 | 30806 ft | 405 kts | 205° |
| 2026-05-04 15:28 | 51.43236 | 10.18228 | 30281 ft | 402 kts | 205° |
| 2026-05-04 15:28 | 51.38090 | 10.14917 | 29116 ft | 396 kts | 204° |
| 2026-05-04 15:29 | 51.35540 | 10.13287 | 28526 ft | 393 kts | 204° |
| 2026-05-04 15:30 | 51.25523 | 10.06907 | 26362 ft | 382 kts | 204° |
| 2026-05-04 15:30 | 51.18182 | 10.02232 | 24886 ft | 375 kts | 204° |
| 2026-05-04 15:31 | 51.13379 | 9.99186 | 23958 ft | 371 kts | 203° |
| 2026-05-04 15:31 | 51.10986 | 9.97673 | 23497 ft | 368 kts | 203° |
| 2026-05-04 15:32 | 51.03898 | 9.93196 | 21924 ft | 363 kts | 203° |
| 2026-05-04 15:32 | 50.99222 | 9.90254 | 20942 ft | 360 kts | 202° |
| 2026-05-04 15:33 | 50.95368 | 9.87830 | 20145 ft | 358 kts | 202° |
| 2026-05-04 15:34 | 50.88463 | 9.83503 | 18776 ft | 353 kts | 202° |
| 2026-05-04 15:34 | 50.86182 | 9.82079 | 18344 ft | 351 kts | 202° |
| 2026-05-04 15:34 | 50.81659 | 9.79252 | 17359 ft | 347 kts | 202° |
| 2026-05-04 15:35 | 50.77193 | 9.76470 | 16407 ft | 343 kts | 202° |
| 2026-05-04 15:35 | 50.74984 | 9.75088 | 15942 ft | 341 kts | 201° |
| 2026-05-04 15:35 | 50.72783 | 9.73713 | 15487 ft | 338 kts | 201° |
| 2026-05-04 15:36 | 50.68431 | 9.71020 | 14619 ft | 334 kts | 201° |
| 2026-05-04 15:36 | 50.66274 | 9.69690 | 14196 ft | 332 kts | 201° |
| 2026-05-04 15:36 | 50.64134 | 9.68371 | 13784 ft | 330 kts | 201° |
| 2026-05-04 15:37 | 50.61995 | 9.67048 | 13317 ft | 329 kts | 201° |
| 2026-05-04 15:37 | 50.59903 | 9.65761 | 12864 ft | 325 kts | 201° |
| 2026-05-04 15:37 | 50.57803 | 9.64476 | 12416 ft | 322 kts | 201° |
| 2026-05-04 15:37 | 50.55724 | 9.63206 | 11981 ft | 320 kts | 201° |
| 2026-05-04 15:38 | 50.53655 | 9.61941 | 11548 ft | 318 kts | 202° |
| 2026-05-04 15:38 | 50.51682 | 9.60386 | 11128 ft | 316 kts | 211° |
| 2026-05-04 15:38 | 50.49907 | 9.58372 | 10695 ft | 314 kts | 220° |
| 2026-05-04 15:38 | 50.48362 | 9.55957 | 10312 ft | 312 kts | 228° |
| 2026-05-04 15:39 | 50.47081 | 9.53214 | 9914 ft | 311 kts | 237° |
| 2026-05-04 15:39 | 50.46100 | 9.50235 | 9774 ft | 309 kts | 245° |
| 2026-05-04 15:39 | 50.44778 | 9.43726 | 9509 ft | 314 kts | 251° |
| 2026-05-04 15:40 | 50.44160 | 9.40446 | 9381 ft | 313 kts | 251° |
| 2026-05-04 15:40 | 50.43540 | 9.37175 | 9246 ft | 312 kts | 251° |
| 2026-05-04 15:40 | 50.42919 | 9.33922 | 9109 ft | 311 kts | 251° |
| 2026-05-04 15:40 | 50.42296 | 9.30674 | 8982 ft | 311 kts | 251° |
| 2026-05-04 15:41 | 50.41671 | 9.27427 | 8849 ft | 311 kts | 251° |
| 2026-05-04 15:41 | 50.41048 | 9.24222 | 8731 ft | 300 kts | 250° |
| 2026-05-04 15:41 | 50.40393 | 9.21197 | 8593 ft | 286 kts | 248° |
| 2026-05-04 15:41 | 50.39728 | 9.18337 | 8460 ft | 275 kts | 247° |
| 2026-05-04 15:42 | 50.39064 | 9.15545 | 8332 ft | 273 kts | 247° |
| 2026-05-04 15:42 | 50.38409 | 9.12792 | 8205 ft | 272 kts | 247° |
| 2026-05-04 15:42 | 50.37751 | 9.10017 | 8084 ft | 270 kts | 247° |
| 2026-05-04 15:42 | 50.37100 | 9.07263 | 7952 ft | 270 kts | 247° |
| 2026-05-04 15:43 | 50.36451 | 9.04501 | 7822 ft | 270 kts | 248° |
| 2026-05-04 15:43 | 50.35809 | 9.01746 | 7704 ft | 269 kts | 248° |
| 2026-05-04 15:43 | 50.35169 | 8.98993 | 7571 ft | 269 kts | 248° |
| 2026-05-04 15:43 | 50.34525 | 8.96255 | 7448 ft | 267 kts | 246° |
| 2026-05-04 15:44 | 50.33531 | 8.93842 | 7325 ft | 264 kts | 224° |
| 2026-05-04 15:44 | 50.32017 | 8.92280 | 7201 ft | 262 kts | 200° |
| 2026-05-04 15:44 | 50.30216 | 8.91837 | 7075 ft | 264 kts | 177° |
| 2026-05-04 15:44 | 50.28407 | 8.92286 | 6953 ft | 263 kts | 171° |
| 2026-05-04 15:45 | 50.26611 | 8.92808 | 6832 ft | 262 kts | 171° |
| 2026-05-04 15:45 | 50.24819 | 8.93331 | 6708 ft | 262 kts | 171° |
| 2026-05-04 15:45 | 50.23029 | 8.93848 | 6586 ft | 261 kts | 172° |
| 2026-05-04 15:45 | 50.21266 | 8.93873 | 6454 ft | 248 kts | 192° |
| 2026-05-04 15:46 | 50.19718 | 8.92897 | 6340 ft | 236 kts | 210° |
| 2026-05-04 15:46 | 50.18304 | 8.91616 | 6209 ft | 243 kts | 210° |
| 2026-05-04 15:46 | 50.16777 | 8.90230 | 5931 ft | 270 kts | 210° |
| 2026-05-04 15:46 | 50.15106 | 8.88714 | 5569 ft | 287 kts | 210° |
| 2026-05-04 15:47 | 50.13421 | 8.87014 | 5214 ft | 286 kts | 220° |
| 2026-05-04 15:47 | 50.12139 | 8.84685 | 5065 ft | 288 kts | 238° |
| 2026-05-04 15:47 | 50.11319 | 8.81816 | 4999 ft | 291 kts | 249° |
| 2026-05-04 15:47 | 50.10624 | 8.78843 | 4962 ft | 294 kts | 249° |
| 2026-05-04 15:48 | 50.09910 | 8.75805 | 4160 ft | 302 kts | 249° |
| 2026-05-04 15:48 | 50.09173 | 8.72717 | 3331 ft | 303 kts | 251° |
| 2026-05-04 15:48 | 50.07809 | 8.66953 | 2315 ft | 261 kts | 252° |
| 2026-05-04 15:49 | 50.07212 | 8.64428 | 1951 ft | 233 kts | 251° |
| 2026-05-04 15:49 | 50.06686 | 8.62213 | 1658 ft | 207 kts | 251° |
| 2026-05-04 15:49 | 50.06201 | 8.60174 | 1366 ft | 194 kts | 251° |
| 2026-05-04 15:49 | 50.05754 | 8.58295 | 1112 ft | 175 kts | 251° |
| 2026-05-04 15:50 | 50.05357 | 8.56627 | 876 ft | 156 kts | 250° |
| 2026-05-04 15:50 | 50.04997 | 8.55115 | 661 ft | 146 kts | 250° |
| 2026-05-04 15:50 | 50.04657 | 8.53694 | 453 ft | 136 kts | 249° |
| 2026-05-04 15:50 | 50.04332 | 8.52381 | 347 ft | 116 kts | 249° |
| 2026-05-04 15:51 | 50.04120 | 8.51475 | 330 ft | 50 kts | 249° |
| 2026-05-04 15:51 | 50.04023 | 8.51117 | 326 ft | 24 kts | 239° |
| 2026-05-04 15:51 | 50.03914 | 8.50932 | 326 ft | 10 kts | 219° |
| 2026-05-04 15:51 | 50.03908 | 8.50924 | 323 ft | 0 kts | 219° |
| 2026-05-04 15:53 | 50.03901 | 8.50915 | 324 ft | 3 kts | 219° |
| 2026-05-04 15:53 | 50.03879 | 8.50888 | 325 ft | 4 kts | 219° |
| 2026-05-04 15:53 | 50.03847 | 8.50851 | 326 ft | 8 kts | 210° |
| 2026-05-04 15:54 | 50.03795 | 8.50856 | 330 ft | 7 kts | 149° |
| 2026-05-04 15:54 | 50.03782 | 8.50920 | 331 ft | 6 kts | 76° |
| 2026-05-04 15:54 | 50.03800 | 8.51000 | 331 ft | 10 kts | 70° |
| 2026-05-04 15:54 | 50.03830 | 8.51133 | 333 ft | 17 kts | 70° |
| 2026-05-04 15:55 | 50.03883 | 8.51352 | 332 ft | 26 kts | 69° |
| 2026-05-04 15:55 | 50.03957 | 8.51655 | 333 ft | 34 kts | 69° |
| 2026-05-04 15:55 | 50.04048 | 8.52027 | 339 ft | 38 kts | 69° |
| 2026-05-04 15:55 | 50.04139 | 8.52406 | 347 ft | 37 kts | 69° |
| 2026-05-04 15:56 | 50.04225 | 8.52773 | 354 ft | 36 kts | 69° |
| 2026-05-04 15:56 | 50.04312 | 8.53129 | 358 ft | 35 kts | 69° |
| 2026-05-04 15:56 | 50.04384 | 8.53456 | 374 ft | 25 kts | 72° |
| 2026-05-04 15:56 | 50.04407 | 8.53688 | 375 ft | 22 kts | 83° |
| 2026-05-04 15:57 | 50.04425 | 8.53934 | 375 ft | 24 kts | 83° |
| 2026-05-04 15:57 | 50.04443 | 8.54197 | 375 ft | 25 kts | 84° |
| 2026-05-04 15:57 | 50.04454 | 8.54454 | 370 ft | 20 kts | 98° |
| 2026-05-04 15:57 | 50.04393 | 8.54676 | 363 ft | 25 kts | 129° |
| 2026-05-04 15:58 | 50.04297 | 8.54781 | 357 ft | 18 kts | 162° |
| 2026-05-04 15:58 | 50.04169 | 8.54852 | 354 ft | 17 kts | 159° |
| 2026-05-04 15:58 | 50.04098 | 8.54894 | 351 ft | 0 kts | 159° |
| 2026-05-04 16:00 | 50.04092 | 8.54897 | 353 ft | 2 kts | 159° |
| 2026-05-04 16:00 | 50.04075 | 8.54907 | 351 ft | 4 kts | 159° |
| 2026-05-04 16:01 | 50.04044 | 8.54925 | 356 ft | 6 kts | 159° |
| 2026-05-04 16:01 | 50.04016 | 8.54967 | 358 ft | 6 kts | 116° |
| 2026-05-04 16:01 | 50.04027 | 8.55052 | 356 ft | 12 kts | 71° |
| 2026-05-04 16:01 | 50.04066 | 8.55215 | 354 ft | 18 kts | 69° |
| 2026-05-04 16:02 | 50.04115 | 8.55412 | 360 ft | 21 kts | 68° |
| 2026-05-04 16:02 | 50.04159 | 8.55592 | 357 ft | 15 kts | 71° |
| 2026-05-04 16:02 | 50.04208 | 8.55813 | 355 ft | 9 kts | 69° |
| 2026-05-04 16:03 | 50.04234 | 8.55918 | 357 ft | 12 kts | 69° |
| 2026-05-04 16:03 | 50.04268 | 8.56046 | 356 ft | 13 kts | 54° |
| 2026-05-04 16:03 | 50.04347 | 8.56055 | 357 ft | 11 kts | 342° |
| 2026-05-04 16:03 | 50.04365 | 8.56044 | 360 ft | 0 kts | 339° |
| 2026-05-04 16:04 | 50.04366 | 8.56044 | 360 ft | 1 kts | 339° |
| 2026-05-04 16:04 | 50.04461 | 8.56170 | 361 ft | 13 kts | 66° |
| 2026-05-04 16:04 | 50.04500 | 8.56311 | 361 ft | 12 kts | 68° |
| 2026-05-04 16:05 | 50.04526 | 8.56408 | 358 ft | 10 kts | 62° |
| 2026-05-04 16:05 | 50.04587 | 8.56463 | 359 ft | 7 kts | 26° |
| 2026-05-04 16:05 | 50.04593 | 8.56468 | 358 ft | 1 kts | 26° |
| 2026-05-04 16:06 | 50.04606 | 8.56478 | 359 ft | 3 kts | 26° |
| 2026-05-04 16:06 | 50.04705 | 8.56556 | 358 ft | 8 kts | 30° |
| 2026-05-04 16:07 | 50.04705 | 8.56640 | 358 ft | 7 kts | 111° |
| 2026-05-04 16:07 | 50.04687 | 8.56700 | 359 ft | 0 kts | 114° |